sensor_id;sensor_type;location;lat;lon;timestamp;temperature;humidity
74946;HTU21D;63509;45.250;38.102;2023-05-10T00:01:25;10.81;72.61
74946;HTU21D;63509;45.250;38.102;2023-05-10T00:03:51;10.81;72.59
74946;HTU21D;63509;45.250;38.102;2023-05-10T00:06:17;10.79;72.62
74946;HTU21D;63509;45.250;38.102;2023-05-10T00:08:44;10.79;72.61
74946;HTU21D;63509;45.250;38.102;2023-05-10T00:11:10;10.79;72.63
74946;HTU21D;63509;45.250;38.102;2023-05-10T00:13:37;10.77;72.67
74946;HTU21D;63509;45.250;38.102;2023-05-10T00:16:03;10.77;72.62
74946;HTU21D;63509;45.250;38.102;2023-05-10T00:18:29;10.75;72.62
74946;HTU21D;63509;45.250;38.102;2023-05-10T00:20:55;10.73;72.64
74946;HTU21D;63509;45.250;38.102;2023-05-10T00:23:21;10.73;72.64
74946;HTU21D;63509;45.250;38.102;2023-05-10T00:25:47;10.73;72.64
74946;HTU21D;63509;45.250;38.102;2023-05-10T00:28:13;10.72;72.64
74946;HTU21D;63509;45.250;38.102;2023-05-10T00:30:39;10.70;72.67
74946;HTU21D;63509;45.250;38.102;2023-05-10T00:33:05;10.68;72.64
74946;HTU21D;63509;45.250;38.102;2023-05-10T00:35:31;10.69;72.65
74946;HTU21D;63509;45.250;38.102;2023-05-10T00:37:57;10.68;72.66
74946;HTU21D;63509;45.250;38.102;2023-05-10T00:40:23;10.67;72.68
74946;HTU21D;63509;45.250;38.102;2023-05-10T00:42:55;10.65;72.71
74946;HTU21D;63509;45.250;38.102;2023-05-10T00:45:21;10.65;72.70
74946;HTU21D;63509;45.250;38.102;2023-05-10T00:47:47;10.65;72.73
74946;HTU21D;63509;45.250;38.102;2023-05-10T00:50:14;10.65;72.72
74946;HTU21D;63509;45.250;38.102;2023-05-10T00:52:41;10.64;72.72
74946;HTU21D;63509;45.250;38.102;2023-05-10T00:55:09;10.64;72.71
74946;HTU21D;63509;45.250;38.102;2023-05-10T00:57:37;10.64;72.69
74946;HTU21D;63509;45.250;38.102;2023-05-10T01:00:03;10.64;72.72
74946;HTU21D;63509;45.250;38.102;2023-05-10T01:02:30;10.63;72.71
74946;HTU21D;63509;45.250;38.102;2023-05-10T01:04:56;10.63;72.69
74946;HTU21D;63509;45.250;38.102;2023-05-10T01:07:22;10.63;72.68
74946;HTU21D;63509;45.250;38.102;2023-05-10T01:09:49;10.62;72.68
74946;HTU21D;63509;45.250;38.102;2023-05-10T01:12:15;10.62;72.70
74946;HTU21D;63509;45.250;38.102;2023-05-10T01:14:41;10.62;72.69
74946;HTU21D;63509;45.250;38.102;2023-05-10T01:17:07;10.62;72.71
74946;HTU21D;63509;45.250;38.102;2023-05-10T01:19:35;10.60;72.72
74946;HTU21D;63509;45.250;38.102;2023-05-10T01:25:25;10.58;72.69
74946;HTU21D;63509;45.250;38.102;2023-05-10T01:33:30;10.56;72.69
74946;HTU21D;63509;45.250;38.102;2023-05-10T01:36:32;10.54;72.64
74946;HTU21D;63509;45.250;38.102;2023-05-10T01:39:29;10.53;72.65
74946;HTU21D;63509;45.250;38.102;2023-05-10T01:47:23;10.45;72.69
74946;HTU21D;63509;45.250;38.102;2023-05-10T01:49:53;10.46;72.64
74946;HTU21D;63509;45.250;38.102;2023-05-10T01:52:25;10.43;72.62
74946;HTU21D;63509;45.250;38.102;2023-05-10T01:55:01;10.42;72.67
74946;HTU21D;63509;45.250;38.102;2023-05-10T01:57:33;10.41;72.72
74946;HTU21D;63509;45.250;38.102;2023-05-10T02:00:01;10.42;72.71
74946;HTU21D;63509;45.250;38.102;2023-05-10T02:02:42;10.43;72.70
74946;HTU21D;63509;45.250;38.102;2023-05-10T02:05:12;10.41;72.71
74946;HTU21D;63509;45.250;38.102;2023-05-10T02:07:39;10.41;72.73
74946;HTU21D;63509;45.250;38.102;2023-05-10T02:10:09;10.40;72.70
74946;HTU21D;63509;45.250;38.102;2023-05-10T02:12:39;10.41;72.70
74946;HTU21D;63509;45.250;38.102;2023-05-10T02:15:07;10.40;72.67
74946;HTU21D;63509;45.250;38.102;2023-05-10T02:17:35;10.39;72.68
74946;HTU21D;63509;45.250;38.102;2023-05-10T02:20:05;10.39;72.70
74946;HTU21D;63509;45.250;38.102;2023-05-10T02:22:32;10.38;72.70
74946;HTU21D;63509;45.250;38.102;2023-05-10T02:25:00;10.38;72.73
74946;HTU21D;63509;45.250;38.102;2023-05-10T02:27:27;10.38;72.75
74946;HTU21D;63509;45.250;38.102;2023-05-10T02:29:55;10.38;72.70
74946;HTU21D;63509;45.250;38.102;2023-05-10T02:32:22;10.37;72.70
74946;HTU21D;63509;45.250;38.102;2023-05-10T02:34:51;10.37;72.74
74946;HTU21D;63509;45.250;38.102;2023-05-10T02:37:21;10.36;72.75
74946;HTU21D;63509;45.250;38.102;2023-05-10T02:39:50;10.35;72.75
74946;HTU21D;63509;45.250;38.102;2023-05-10T02:42:18;10.35;72.74
74946;HTU21D;63509;45.250;38.102;2023-05-10T02:44:47;10.36;72.76
74946;HTU21D;63509;45.250;38.102;2023-05-10T02:47:14;10.36;72.75
74946;HTU21D;63509;45.250;38.102;2023-05-10T02:49:41;10.37;72.75
74946;HTU21D;63509;45.250;38.102;2023-05-10T02:52:08;10.38;72.74
74946;HTU21D;63509;45.250;38.102;2023-05-10T02:54:45;10.37;72.73
74946;HTU21D;63509;45.250;38.102;2023-05-10T02:57:16;10.38;72.74
74946;HTU21D;63509;45.250;38.102;2023-05-10T02:59:44;10.37;72.72
74946;HTU21D;63509;45.250;38.102;2023-05-10T03:02:12;10.37;72.70
74946;HTU21D;63509;45.250;38.102;2023-05-10T03:04:39;10.37;72.69
74946;HTU21D;63509;45.250;38.102;2023-05-10T03:07:05;10.35;72.70
74946;HTU21D;63509;45.250;38.102;2023-05-10T03:09:32;10.33;72.71
74946;HTU21D;63509;45.250;38.102;2023-05-10T03:12:07;10.33;72.67
74946;HTU21D;63509;45.250;38.102;2023-05-10T03:15:09;10.30;72.70
74946;HTU21D;63509;45.250;38.102;2023-05-10T03:17:47;10.30;72.74
74946;HTU21D;63509;45.250;38.102;2023-05-10T03:20:42;10.31;72.78
74946;HTU21D;63509;45.250;38.102;2023-05-10T03:23:25;10.33;72.80
74946;HTU21D;63509;45.250;38.102;2023-05-10T03:25:53;10.34;72.80
74946;HTU21D;63509;45.250;38.102;2023-05-10T03:28:20;10.33;72.79
74946;HTU21D;63509;45.250;38.102;2023-05-10T03:30:47;10.34;72.78
74946;HTU21D;63509;45.250;38.102;2023-05-10T03:33:14;10.34;72.76
74946;HTU21D;63509;45.250;38.102;2023-05-10T03:35:44;10.34;72.77
74946;HTU21D;63509;45.250;38.102;2023-05-10T03:38:12;10.35;72.78
74946;HTU21D;63509;45.250;38.102;2023-05-10T03:40:39;10.36;72.82
74946;HTU21D;63509;45.250;38.102;2023-05-10T03:43:05;10.36;72.83
74946;HTU21D;63509;45.250;38.102;2023-05-10T03:45:31;10.38;72.86
74946;HTU21D;63509;45.250;38.102;2023-05-10T03:47:58;10.41;72.84
74946;HTU21D;63509;45.250;38.102;2023-05-10T03:50:24;10.44;72.87
74946;HTU21D;63509;45.250;38.102;2023-05-10T03:52:52;10.48;72.88
74946;HTU21D;63509;45.250;38.102;2023-05-10T03:55:18;10.52;72.89
74946;HTU21D;63509;45.250;38.102;2023-05-10T03:57:45;10.56;72.87
74946;HTU21D;63509;45.250;38.102;2023-05-10T04:00:11;10.58;72.83
74946;HTU21D;63509;45.250;38.102;2023-05-10T04:02:40;10.60;72.83
74946;HTU21D;63509;45.250;38.102;2023-05-10T04:05:09;10.64;72.82
74946;HTU21D;63509;45.250;38.102;2023-05-10T04:07:36;10.66;72.78
74946;HTU21D;63509;45.250;38.102;2023-05-10T04:10:02;10.68;72.74
74946;HTU21D;63509;45.250;38.102;2023-05-10T04:12:28;10.69;72.72
74946;HTU21D;63509;45.250;38.102;2023-05-10T04:14:55;10.70;72.70
74946;HTU21D;63509;45.250;38.102;2023-05-10T04:17:21;10.70;72.69
74946;HTU21D;63509;45.250;38.102;2023-05-10T04:19:47;10.72;72.69
74946;HTU21D;63509;45.250;38.102;2023-05-10T04:22:13;10.73;72.68
74946;HTU21D;63509;45.250;38.102;2023-05-10T04:24:39;10.73;72.68
74946;HTU21D;63509;45.250;38.102;2023-05-10T04:27:05;10.75;72.69
74946;HTU21D;63509;45.250;38.102;2023-05-10T04:29:31;10.78;72.70
74946;HTU21D;63509;45.250;38.102;2023-05-10T04:31:57;10.80;72.70
74946;HTU21D;63509;45.250;38.102;2023-05-10T04:34:24;10.83;72.69
74946;HTU21D;63509;45.250;38.102;2023-05-10T04:36:51;10.86;72.70
74946;HTU21D;63509;45.250;38.102;2023-05-10T04:39:17;10.88;72.67
74946;HTU21D;63509;45.250;38.102;2023-05-10T04:41:43;10.90;72.65
74946;HTU21D;63509;45.250;38.102;2023-05-10T04:44:09;10.90;72.64
74946;HTU21D;63509;45.250;38.102;2023-05-10T04:46:35;10.93;72.64
74946;HTU21D;63509;45.250;38.102;2023-05-10T04:49:02;10.96;72.67
74946;HTU21D;63509;45.250;38.102;2023-05-10T04:51:28;10.98;72.64
74946;HTU21D;63509;45.250;38.102;2023-05-10T04:53:54;10.98;72.62
74946;HTU21D;63509;45.250;38.102;2023-05-10T04:56:20;11.00;72.64
74946;HTU21D;63509;45.250;38.102;2023-05-10T04:58:47;11.02;72.67
74946;HTU21D;63509;45.250;38.102;2023-05-10T05:01:13;11.03;72.68
74946;HTU21D;63509;45.250;38.102;2023-05-10T05:03:39;11.05;72.72
74946;HTU21D;63509;45.250;38.102;2023-05-10T05:06:06;11.11;72.74
74946;HTU21D;63509;45.250;38.102;2023-05-10T05:08:32;11.15;72.77
74946;HTU21D;63509;45.250;38.102;2023-05-10T05:10:58;11.19;72.77
74946;HTU21D;63509;45.250;38.102;2023-05-10T05:13:24;11.25;72.79
74946;HTU21D;63509;45.250;38.102;2023-05-10T05:15:51;11.30;72.81
74946;HTU21D;63509;45.250;38.102;2023-05-10T05:18:17;11.36;72.79
74946;HTU21D;63509;45.250;38.102;2023-05-10T05:20:43;11.38;72.75
74946;HTU21D;63509;45.250;38.102;2023-05-10T05:23:09;11.44;72.81
74946;HTU21D;63509;45.250;38.102;2023-05-10T05:25:35;11.51;72.85
74946;HTU21D;63509;45.250;38.102;2023-05-10T05:28:01;11.60;72.91
74946;HTU21D;63509;45.250;38.102;2023-05-10T05:30:28;11.71;72.99
74946;HTU21D;63509;45.250;38.102;2023-05-10T05:32:54;11.85;73.15
74946;HTU21D;63509;45.250;38.102;2023-05-10T05:35:20;12.01;73.16
74946;HTU21D;63509;45.250;38.102;2023-05-10T05:37:46;12.12;73.13
74946;HTU21D;63509;45.250;38.102;2023-05-10T05:40:12;12.21;73.01
74946;HTU21D;63509;45.250;38.102;2023-05-10T05:42:39;12.28;72.91
74946;HTU21D;63509;45.250;38.102;2023-05-10T05:45:05;12.34;72.90
74946;HTU21D;63509;45.250;38.102;2023-05-10T05:47:32;12.40;72.96
74946;HTU21D;63509;45.250;38.102;2023-05-10T05:49:58;12.48;72.93
74946;HTU21D;63509;45.250;38.102;2023-05-10T05:52:24;12.53;72.87
74946;HTU21D;63509;45.250;38.102;2023-05-10T05:54:50;12.64;73.05
74946;HTU21D;63509;45.250;38.102;2023-05-10T05:57:16;12.76;73.06
74946;HTU21D;63509;45.250;38.102;2023-05-10T05:59:42;12.87;73.05
74946;HTU21D;63509;45.250;38.102;2023-05-10T06:02:09;12.93;72.95
74946;HTU21D;63509;45.250;38.102;2023-05-10T06:04:36;13.00;72.83
74946;HTU21D;63509;45.250;38.102;2023-05-10T06:07:02;13.05;72.77
74946;HTU21D;63509;45.250;38.102;2023-05-10T06:09:28;13.09;72.74
74946;HTU21D;63509;45.250;38.102;2023-05-10T06:11:54;13.16;72.80
74946;HTU21D;63509;45.250;38.102;2023-05-10T06:14:21;13.22;72.86
74946;HTU21D;63509;45.250;38.102;2023-05-10T06:16:47;13.32;72.88
74946;HTU21D;63509;45.250;38.102;2023-05-10T06:19:14;13.40;72.85
74946;HTU21D;63509;45.250;38.102;2023-05-10T06:21:40;13.49;72.83
74946;HTU21D;63509;45.250;38.102;2023-05-10T06:24:06;13.55;72.91
74946;HTU21D;63509;45.250;38.102;2023-05-10T06:26:33;13.75;73.19
74946;HTU21D;63509;45.250;38.102;2023-05-10T06:28:59;13.96;73.26
74946;HTU21D;63509;45.250;38.102;2023-05-10T06:31:25;14.13;73.22
74946;HTU21D;63509;45.250;38.102;2023-05-10T06:33:51;14.33;73.19
74946;HTU21D;63509;45.250;38.102;2023-05-10T06:36:17;14.50;73.15
74946;HTU21D;63509;45.250;38.102;2023-05-10T06:38:44;14.65;73.05
74946;HTU21D;63509;45.250;38.102;2023-05-10T06:41:10;14.75;72.87
74946;HTU21D;63509;45.250;38.102;2023-05-10T06:43:36;14.85;72.74
74946;HTU21D;63509;45.250;38.102;2023-05-10T06:46:05;14.91;72.62
74946;HTU21D;63509;45.250;38.102;2023-05-10T06:48:32;14.93;72.54
74946;HTU21D;63509;45.250;38.102;2023-05-10T06:50:59;14.93;72.43
74946;HTU21D;63509;45.250;38.102;2023-05-10T06:53:25;14.96;72.39
74946;HTU21D;63509;45.250;38.102;2023-05-10T06:55:51;14.98;72.41
74946;HTU21D;63509;45.250;38.102;2023-05-10T06:58:18;15.02;72.49
74946;HTU21D;63509;45.250;38.102;2023-05-10T07:00:44;15.10;72.52
74946;HTU21D;63509;45.250;38.102;2023-05-10T07:03:12;15.16;72.41
74946;HTU21D;63509;45.250;38.102;2023-05-10T07:05:38;15.19;72.32
74946;HTU21D;63509;45.250;38.102;2023-05-10T07:08:04;15.25;72.38
74946;HTU21D;63509;45.250;38.102;2023-05-10T07:10:30;15.36;72.48
74946;HTU21D;63509;45.250;38.102;2023-05-10T07:12:57;15.43;72.38
74946;HTU21D;63509;45.250;38.102;2023-05-10T07:15:23;15.49;72.39
74946;HTU21D;63509;45.250;38.102;2023-05-10T07:17:49;15.65;72.51
74946;HTU21D;63509;45.250;38.102;2023-05-10T07:20:15;15.86;72.86
74946;HTU21D;63509;45.250;38.102;2023-05-10T07:22:41;16.12;72.78
74946;HTU21D;63509;45.250;38.102;2023-05-10T07:25:08;16.30;72.53
74946;HTU21D;63509;45.250;38.102;2023-05-10T07:27:34;16.46;72.38
74946;HTU21D;63509;45.250;38.102;2023-05-10T07:30:00;16.59;72.18
74946;HTU21D;63509;45.250;38.102;2023-05-10T07:32:27;16.65;72.00
74946;HTU21D;63509;45.250;38.102;2023-05-10T07:34:53;16.71;71.87
74946;HTU21D;63509;45.250;38.102;2023-05-10T07:37:19;16.78;71.84
74946;HTU21D;63509;45.250;38.102;2023-05-10T07:39:45;16.80;71.55
74946;HTU21D;63509;45.250;38.102;2023-05-10T07:42:11;16.74;71.16
74946;HTU21D;63509;45.250;38.102;2023-05-10T07:44:37;16.58;70.95
74946;HTU21D;63509;45.250;38.102;2023-05-10T07:47:03;16.39;70.77
74946;HTU21D;63509;45.250;38.102;2023-05-10T07:49:29;16.21;70.86
74946;HTU21D;63509;45.250;38.102;2023-05-10T07:51:55;16.04;70.87
74946;HTU21D;63509;45.250;38.102;2023-05-10T07:54:22;15.89;70.90
74946;HTU21D;63509;45.250;38.102;2023-05-10T07:56:48;15.76;70.94
74946;HTU21D;63509;45.250;38.102;2023-05-10T07:59:17;15.68;71.06
74946;HTU21D;63509;45.250;38.102;2023-05-10T08:01:44;15.58;71.06
74946;HTU21D;63509;45.250;38.102;2023-05-10T08:04:10;15.52;71.14
74946;HTU21D;63509;45.250;38.102;2023-05-10T08:06:37;15.49;71.30
74946;HTU21D;63509;45.250;38.102;2023-05-10T08:09:03;15.54;71.52
74946;HTU21D;63509;45.250;38.102;2023-05-10T08:11:30;15.68;71.74
74946;HTU21D;63509;45.250;38.102;2023-05-10T08:13:56;15.83;71.87
74946;HTU21D;63509;45.250;38.102;2023-05-10T08:16:22;15.99;71.89
74946;HTU21D;63509;45.250;38.102;2023-05-10T08:18:48;16.15;71.78
74946;HTU21D;63509;45.250;38.102;2023-05-10T08:21:15;16.29;71.61
74946;HTU21D;63509;45.250;38.102;2023-05-10T08:23:41;16.40;71.40
74946;HTU21D;63509;45.250;38.102;2023-05-10T08:26:09;16.45;71.05
74946;HTU21D;63509;45.250;38.102;2023-05-10T08:28:35;16.44;70.84
74946;HTU21D;63509;45.250;38.102;2023-05-10T08:31:02;16.39;70.70
74946;HTU21D;63509;45.250;38.102;2023-05-10T08:33:28;16.35;70.65
74946;HTU21D;63509;45.250;38.102;2023-05-10T08:35:54;16.39;70.94
74946;HTU21D;63509;45.250;38.102;2023-05-10T08:38:20;16.59;71.41
74946;HTU21D;63509;45.250;38.102;2023-05-10T08:40:49;16.91;71.67
74946;HTU21D;63509;45.250;38.102;2023-05-10T08:43:18;17.32;71.90
74946;HTU21D;63509;45.250;38.102;2023-05-10T08:45:44;17.67;71.78
74946;HTU21D;63509;45.250;38.102;2023-05-10T08:48:14;18.09;71.62
74946;HTU21D;63509;45.250;38.102;2023-05-10T08:50:42;18.48;71.49
74946;HTU21D;63509;45.250;38.102;2023-05-10T08:53:13;18.87;71.16
74946;HTU21D;63509;45.250;38.102;2023-05-10T08:55:40;19.22;70.79
74946;HTU21D;63509;45.250;38.102;2023-05-10T08:58:07;19.47;70.55
74946;HTU21D;63509;45.250;38.102;2023-05-10T09:00:35;19.70;70.36
74946;HTU21D;63509;45.250;38.102;2023-05-10T09:03:04;19.91;69.90
74946;HTU21D;63509;45.250;38.102;2023-05-10T09:05:31;20.09;69.51
74946;HTU21D;63509;45.250;38.102;2023-05-10T09:07:57;20.25;69.22
74946;HTU21D;63509;45.250;38.102;2023-05-10T09:10:26;20.32;68.70
74946;HTU21D;63509;45.250;38.102;2023-05-10T09:12:56;20.30;68.36
74946;HTU21D;63509;45.250;38.102;2023-05-10T09:15:22;20.20;67.97
74946;HTU21D;63509;45.250;38.102;2023-05-10T09:17:49;20.06;67.89
74946;HTU21D;63509;45.250;38.102;2023-05-10T09:20:16;19.96;67.85
74946;HTU21D;63509;45.250;38.102;2023-05-10T09:22:43;19.85;67.71
74946;HTU21D;63509;45.250;38.102;2023-05-10T09:25:12;19.72;67.68
74946;HTU21D;63509;45.250;38.102;2023-05-10T09:27:39;19.59;67.63
74946;HTU21D;63509;45.250;38.102;2023-05-10T09:30:07;19.42;67.53
74946;HTU21D;63509;45.250;38.102;2023-05-10T09:32:41;19.23;67.54
74946;HTU21D;63509;45.250;38.102;2023-05-10T09:35:13;19.07;67.64
74946;HTU21D;63509;45.250;38.102;2023-05-10T09:37:40;18.96;67.68
74946;HTU21D;63509;45.250;38.102;2023-05-10T09:40:10;18.92;67.76
74946;HTU21D;63509;45.250;38.102;2023-05-10T09:42:37;18.87;67.81
74946;HTU21D;63509;45.250;38.102;2023-05-10T09:45:04;18.87;67.97
74946;HTU21D;63509;45.250;38.102;2023-05-10T09:47:34;18.93;67.94
74946;HTU21D;63509;45.250;38.102;2023-05-10T09:50:03;18.96;67.75
74946;HTU21D;63509;45.250;38.102;2023-05-10T09:52:52;18.97;67.74
74946;HTU21D;63509;45.250;38.102;2023-05-10T09:55:40;18.96;67.64
74946;HTU21D;63509;45.250;38.102;2023-05-10T09:58:07;18.97;67.55
74946;HTU21D;63509;45.250;38.102;2023-05-10T10:00:38;18.96;67.49
74946;HTU21D;63509;45.250;38.102;2023-05-10T10:03:05;19.00;67.66
74946;HTU21D;63509;45.250;38.102;2023-05-10T10:05:33;19.24;67.87
74946;HTU21D;63509;45.250;38.102;2023-05-10T10:08:03;19.48;67.59
74946;HTU21D;63509;45.250;38.102;2023-05-10T10:10:32;19.61;67.20
74946;HTU21D;63509;45.250;38.102;2023-05-10T10:12:59;19.72;67.09
74946;HTU21D;63509;45.250;38.102;2023-05-10T10:15:26;19.82;66.78
74946;HTU21D;63509;45.250;38.102;2023-05-10T10:17:52;19.79;66.38
74946;HTU21D;63509;45.250;38.102;2023-05-10T10:20:20;19.69;66.27
74946;HTU21D;63509;45.250;38.102;2023-05-10T10:22:47;19.68;66.40
74946;HTU21D;63509;45.250;38.102;2023-05-10T10:25:14;19.76;66.54
74946;HTU21D;63509;45.250;38.102;2023-05-10T10:27:49;19.94;66.60
74946;HTU21D;63509;45.250;38.102;2023-05-10T10:30:42;20.19;66.50
74946;HTU21D;63509;45.250;38.102;2023-05-10T10:36:01;20.57;66.17
74946;HTU21D;63509;45.250;38.102;2023-05-10T10:41:32;20.65;65.44
74946;HTU21D;63509;45.250;38.102;2023-05-10T10:49:44;20.02;64.89
74946;HTU21D;63509;45.250;38.102;2023-05-10T10:52:15;19.73;64.77
74946;HTU21D;63509;45.250;38.102;2023-05-10T10:54:50;19.44;64.80
74946;HTU21D;63509;45.250;38.102;2023-05-10T10:57:19;19.12;64.75
74946;HTU21D;63509;45.250;38.102;2023-05-10T10:59:45;18.80;64.91
74946;HTU21D;63509;45.250;38.102;2023-05-10T11:02:34;18.58;65.30
74946;HTU21D;63509;45.250;38.102;2023-05-10T11:05:35;18.55;65.85
74946;HTU21D;63509;45.250;38.102;2023-05-10T11:08:10;18.65;66.02
74946;HTU21D;63509;45.250;38.102;2023-05-10T11:10:37;18.77;65.85
74946;HTU21D;63509;45.250;38.102;2023-05-10T11:13:05;18.86;65.54
74946;HTU21D;63509;45.250;38.102;2023-05-10T11:15:33;18.92;65.46
74946;HTU21D;63509;45.250;38.102;2023-05-10T11:18:00;19.01;65.39
74946;HTU21D;63509;45.250;38.102;2023-05-10T11:20:42;19.17;65.33
74946;HTU21D;63509;45.250;38.102;2023-05-10T11:23:13;19.28;65.16
74946;HTU21D;63509;45.250;38.102;2023-05-10T11:25:43;19.33;64.88
74946;HTU21D;63509;45.250;38.102;2023-05-10T11:28:13;19.37;64.62
74946;HTU21D;63509;45.250;38.102;2023-05-10T11:30:40;19.33;64.31
74946;HTU21D;63509;45.250;38.102;2023-05-10T11:33:07;19.26;64.21
74946;HTU21D;63509;45.250;38.102;2023-05-10T11:35:40;19.21;64.31
74946;HTU21D;63509;45.250;38.102;2023-05-10T11:38:11;19.20;64.41
74946;HTU21D;63509;45.250;38.102;2023-05-10T11:40:39;19.28;64.51
74946;HTU21D;63509;45.250;38.102;2023-05-10T11:43:05;19.44;64.63
74946;HTU21D;63509;45.250;38.102;2023-05-10T11:45:33;19.70;64.57
74946;HTU21D;63509;45.250;38.102;2023-05-10T11:48:00;19.87;64.22
74946;HTU21D;63509;45.250;38.102;2023-05-10T11:50:26;20.02;64.02
74946;HTU21D;63509;45.250;38.102;2023-05-10T11:52:53;20.12;63.72
74946;HTU21D;63509;45.250;38.102;2023-05-10T11:55:20;20.10;63.40
74946;HTU21D;63509;45.250;38.102;2023-05-10T11:57:46;20.03;63.13
74946;HTU21D;63509;45.250;38.102;2023-05-10T12:00:15;19.85;63.01
74946;HTU21D;63509;45.250;38.102;2023-05-10T12:02:42;19.67;62.95
74946;HTU21D;63509;45.250;38.102;2023-05-10T12:05:08;19.48;62.95
74946;HTU21D;63509;45.250;38.102;2023-05-10T12:07:35;19.28;63.02
74946;HTU21D;63509;45.250;38.102;2023-05-10T12:10:08;19.07;62.88
74946;HTU21D;63509;45.250;38.102;2023-05-10T12:12:43;18.77;63.07
74946;HTU21D;63509;45.250;38.102;2023-05-10T12:17:39;18.40;63.24
74946;HTU21D;63509;45.250;38.102;2023-05-10T12:20:26;18.35;63.64
74946;HTU21D;63509;45.250;38.102;2023-05-10T12:22:55;18.42;63.82
74946;HTU21D;63509;45.250;38.102;2023-05-10T12:25:23;18.56;63.76
74946;HTU21D;63509;45.250;38.102;2023-05-10T12:27:58;18.70;63.59
74946;HTU21D;63509;45.250;38.102;2023-05-10T12:30:28;18.71;63.24
74946;HTU21D;63509;45.250;38.102;2023-05-10T12:32:59;18.69;63.41
74946;HTU21D;63509;45.250;38.102;2023-05-10T12:35:25;18.62;63.19
74946;HTU21D;63509;45.250;38.102;2023-05-10T12:37:53;18.62;63.24
74946;HTU21D;63509;45.250;38.102;2023-05-10T12:40:19;18.66;63.11
74946;HTU21D;63509;45.250;38.102;2023-05-10T12:42:45;18.68;62.98
74946;HTU21D;63509;45.250;38.102;2023-05-10T12:45:12;18.66;62.82
74946;HTU21D;63509;45.250;38.102;2023-05-10T12:47:38;18.58;62.64
74946;HTU21D;63509;45.250;38.102;2023-05-10T12:50:05;18.49;62.59
74946;HTU21D;63509;45.250;38.102;2023-05-10T12:52:31;18.38;62.53
74946;HTU21D;63509;45.250;38.102;2023-05-10T12:54:59;18.24;62.53
74946;HTU21D;63509;45.250;38.102;2023-05-10T12:57:25;18.17;62.71
74946;HTU21D;63509;45.250;38.102;2023-05-10T12:59:51;18.19;62.86
74946;HTU21D;63509;45.250;38.102;2023-05-10T13:02:18;18.25;62.86
74946;HTU21D;63509;45.250;38.102;2023-05-10T13:04:45;18.27;62.66
74946;HTU21D;63509;45.250;38.102;2023-05-10T13:07:12;18.25;62.49
74946;HTU21D;63509;45.250;38.102;2023-05-10T13:09:40;18.19;62.37
74946;HTU21D;63509;45.250;38.102;2023-05-10T13:12:06;18.07;62.26
74946;HTU21D;63509;45.250;38.102;2023-05-10T13:14:32;17.94;62.30
74946;HTU21D;63509;45.250;38.102;2023-05-10T13:16:58;17.81;62.28
74946;HTU21D;63509;45.250;38.102;2023-05-10T13:19:25;17.67;62.28
74946;HTU21D;63509;45.250;38.102;2023-05-10T13:21:51;17.54;62.33
74946;HTU21D;63509;45.250;38.102;2023-05-10T13:24:18;17.43;62.34
74946;HTU21D;63509;45.250;38.102;2023-05-10T13:26:43;17.28;62.39
74946;HTU21D;63509;45.250;38.102;2023-05-10T13:29:10;17.16;62.43
74946;HTU21D;63509;45.250;38.102;2023-05-10T13:31:36;17.05;62.46
74946;HTU21D;63509;45.250;38.102;2023-05-10T13:34:02;16.92;62.49
74946;HTU21D;63509;45.250;38.102;2023-05-10T13:36:28;16.84;62.52
74946;HTU21D;63509;45.250;38.102;2023-05-10T13:38:54;16.74;62.54
74946;HTU21D;63509;45.250;38.102;2023-05-10T13:41:20;16.64;62.55
74946;HTU21D;63509;45.250;38.102;2023-05-10T13:43:46;16.54;62.59
74946;HTU21D;63509;45.250;38.102;2023-05-10T13:46:14;16.43;62.61
74946;HTU21D;63509;45.250;38.102;2023-05-10T13:48:40;16.33;62.66
74946;HTU21D;63509;45.250;38.102;2023-05-10T13:51:07;16.26;62.66
74946;HTU21D;63509;45.250;38.102;2023-05-10T13:53:33;16.18;62.67
74946;HTU21D;63509;45.250;38.102;2023-05-10T13:55:59;16.13;62.75
74946;HTU21D;63509;45.250;38.102;2023-05-10T13:58:25;16.08;62.82
74946;HTU21D;63509;45.250;38.102;2023-05-10T14:00:51;16.06;62.84
74946;HTU21D;63509;45.250;38.102;2023-05-10T14:03:17;16.05;62.80
74946;HTU21D;63509;45.250;38.102;2023-05-10T14:05:43;16.00;62.79
74946;HTU21D;63509;45.250;38.102;2023-05-10T14:08:10;16.00;62.79
74946;HTU21D;63509;45.250;38.102;2023-05-10T14:10:38;15.97;62.71
74946;HTU21D;63509;45.250;38.102;2023-05-10T14:13:05;15.96;62.65
74946;HTU21D;63509;45.250;38.102;2023-05-10T14:15:31;15.87;62.57
74946;HTU21D;63509;45.250;38.102;2023-05-10T14:17:58;15.81;62.52
74946;HTU21D;63509;45.250;38.102;2023-05-10T14:20:24;15.72;62.49
74946;HTU21D;63509;45.250;38.102;2023-05-10T14:22:50;15.63;62.49
74946;HTU21D;63509;45.250;38.102;2023-05-10T14:25:16;15.55;62.50
74946;HTU21D;63509;45.250;38.102;2023-05-10T14:27:42;15.45;62.53
74946;HTU21D;63509;45.250;38.102;2023-05-10T14:30:08;15.38;62.60
74946;HTU21D;63509;45.250;38.102;2023-05-10T14:32:34;15.33;62.63
74946;HTU21D;63509;45.250;38.102;2023-05-10T14:35:02;15.29;62.63
74946;HTU21D;63509;45.250;38.102;2023-05-10T14:37:28;15.28;62.64
74946;HTU21D;63509;45.250;38.102;2023-05-10T14:39:54;15.24;62.63
74946;HTU21D;63509;45.250;38.102;2023-05-10T14:42:20;15.23;62.58
74946;HTU21D;63509;45.250;38.102;2023-05-10T14:44:47;15.18;62.54
74946;HTU21D;63509;45.250;38.102;2023-05-10T14:47:13;15.13;62.51
74946;HTU21D;63509;45.250;38.102;2023-05-10T14:49:40;15.08;62.50
74946;HTU21D;63509;45.250;38.102;2023-05-10T14:52:06;14.98;62.50
74946;HTU21D;63509;45.250;38.102;2023-05-10T14:54:33;14.89;62.53
74946;HTU21D;63509;45.250;38.102;2023-05-10T14:56:59;14.82;62.57
74946;HTU21D;63509;45.250;38.102;2023-05-10T14:59:26;14.75;62.60
74946;HTU21D;63509;45.250;38.102;2023-05-10T15:01:52;14.70;62.66
74946;HTU21D;63509;45.250;38.102;2023-05-10T15:04:18;14.66;62.67
74946;HTU21D;63509;45.250;38.102;2023-05-10T15:06:44;14.60;62.67
74946;HTU21D;63509;45.250;38.102;2023-05-10T15:09:10;14.56;62.66
74946;HTU21D;63509;45.250;38.102;2023-05-10T15:11:36;14.51;62.68
74946;HTU21D;63509;45.250;38.102;2023-05-10T15:14:03;14.45;62.68
74946;HTU21D;63509;45.250;38.102;2023-05-10T15:16:29;14.40;62.70
74946;HTU21D;63509;45.250;38.102;2023-05-10T15:18:55;14.37;62.71
74946;HTU21D;63509;45.250;38.102;2023-05-10T15:21:21;14.30;62.73
74946;HTU21D;63509;45.250;38.102;2023-05-10T15:23:47;14.26;62.76
74946;HTU21D;63509;45.250;38.102;2023-05-10T15:26:13;14.21;62.76
74946;HTU21D;63509;45.250;38.102;2023-05-10T15:28:39;14.17;62.76
74946;HTU21D;63509;45.250;38.102;2023-05-10T15:31:06;14.11;62.80
74946;HTU21D;63509;45.250;38.102;2023-05-10T15:33:32;14.07;62.81
74946;HTU21D;63509;45.250;38.102;2023-05-10T15:35:58;14.03;62.82